createdAt,value
2019-03-31T00:00:01.403Z,9.82
2019-03-31T00:06:07.053Z,9.66
2019-03-31T00:11:51.402Z,8.76
2019-03-31T00:17:46.414Z,9.95
2019-03-31T00:23:41.432Z,9.25
2019-03-31T00:29:36.457Z,8.68
2019-03-31T00:35:31.462Z,7.99
2019-03-31T00:41:26.743Z,7.7
2019-03-31T00:47:21.471Z,8.25
2019-03-31T00:53:16.576Z,7.87
2019-03-31T00:59:11.429Z,7.71
2019-03-31T01:05:06.444Z,8.16
2019-03-31T01:11:01.454Z,8.14
2019-03-31T01:16:56.450Z,7.14
2019-03-31T01:22:51.456Z,7.68
2019-03-31T01:28:46.479Z,8.15
2019-03-31T01:34:41.489Z,7.79
2019-03-31T01:40:36.481Z,7.93
2019-03-31T01:46:31.492Z,7.21
2019-03-31T01:52:26.480Z,7.26
2019-03-31T01:58:21.481Z,6.89
2019-03-31T02:04:16.471Z,7.28
2019-03-31T02:10:11.488Z,7.2
2019-03-31T02:16:06.502Z,6.58
2019-03-31T02:22:01.494Z,6.13
2019-03-31T02:27:56.513Z,5.73
2019-03-31T02:33:51.533Z,6.96
2019-03-31T02:39:46.522Z,5.58
2019-03-31T02:45:41.509Z,6.77
2019-03-31T02:51:36.548Z,5.87
2019-03-31T02:57:31.528Z,7
2019-03-31T03:03:26.828Z,7.34
2019-03-31T03:09:21.574Z,7.56
2019-03-31T03:15:16.531Z,6.35
2019-03-31T03:21:11.557Z,6.27
2019-03-31T03:27:06.530Z,6.64
2019-03-31T03:33:14.272Z,5.88
2019-03-31T03:38:56.563Z,6.75
2019-03-31T03:44:51.577Z,6.28
2019-03-31T03:50:46.562Z,6.35
2019-03-31T03:56:41.545Z,6.94
2019-03-31T04:02:36.555Z,6.23
2019-03-31T04:08:31.597Z,8.31
2019-03-31T04:14:26.590Z,7.13
2019-03-31T04:20:21.589Z,8.01
2019-03-31T04:26:16.589Z,7.57
2019-03-31T04:32:11.586Z,8.23
2019-03-31T04:38:06.607Z,7.57
2019-03-31T04:44:01.571Z,7.75
2019-03-31T04:49:56.590Z,7.97
2019-03-31T04:55:51.594Z,7.2
2019-03-31T05:01:46.597Z,6.78
2019-03-31T05:07:41.622Z,7.98
2019-03-31T05:13:36.656Z,7.71
2019-03-31T05:19:31.656Z,7.86
2019-03-31T05:25:26.586Z,7.26
2019-03-31T05:31:21.640Z,7.29
2019-03-31T05:37:16.634Z,8.3
2019-03-31T05:43:11.622Z,7.35
2019-03-31T05:49:06.623Z,7.55
2019-03-31T06:00:56.636Z,7.34
2019-03-31T06:00:56.673Z,6.79
2019-03-31T06:06:51.667Z,6.77
2019-03-31T06:12:46.643Z,6.19
2019-03-31T06:18:41.639Z,5.69
2019-03-31T06:24:36.646Z,6.14
2019-03-31T06:30:31.942Z,6.39
2019-03-31T06:36:26.976Z,6.74
2019-03-31T06:42:21.648Z,7.31
2019-03-31T06:54:11.712Z,8.16
2019-03-31T06:54:11.731Z,9.23
2019-03-31T07:00:06.666Z,8.73
2019-03-31T07:06:01.658Z,9.14
2019-03-31T07:11:56.686Z,11.98
2019-03-31T07:17:51.666Z,11.3
2019-03-31T07:23:46.682Z,10.3
2019-03-31T07:29:41.692Z,10.47
2019-03-31T07:35:38.911Z,11.14
2019-03-31T07:47:26.715Z,11.4
2019-03-31T07:47:26.823Z,12.01
2019-03-31T07:53:21.703Z,11.1
2019-03-31T07:59:16.723Z,10.36
2019-03-31T08:05:11.708Z,9.91
2019-03-31T08:11:06.787Z,10.05
2019-03-31T08:17:01.708Z,10.03
2019-03-31T08:22:57.203Z,10.69
2019-03-31T08:28:51.691Z,10.2
2019-03-31T08:40:41.720Z,10.26
2019-03-31T08:40:41.755Z,10.35
2019-03-31T08:46:36.748Z,11.78
2019-03-31T08:52:31.757Z,9.7
2019-03-31T08:58:27.062Z,11.04
2019-03-31T09:04:21.722Z,11.32
2019-03-31T09:10:16.729Z,10.58
2019-03-31T09:16:11.724Z,9.55
2019-03-31T09:22:06.777Z,9.99
2019-03-31T09:33:56.756Z,9.4
2019-03-31T09:33:56.785Z,9.25
2019-03-31T09:39:51.809Z,7.88
2019-03-31T09:45:46.804Z,9.32
2019-03-31T09:51:41.813Z,9.13
2019-03-31T09:57:36.761Z,9.77
2019-03-31T10:03:31.789Z,9.7
2019-03-31T10:09:27.066Z,10.17
2019-03-31T10:15:21.785Z,10.18
2019-03-31T10:27:11.808Z,10.13
2019-03-31T10:27:11.823Z,10.22
2019-03-31T10:33:06.789Z,9.65
2019-03-31T10:39:01.801Z,10.27
2019-03-31T10:44:56.836Z,9.75
2019-03-31T10:50:51.817Z,7.1
2019-03-31T10:56:46.827Z,7.77
2019-03-31T11:02:41.800Z,7.33
2019-03-31T11:08:36.874Z,7.55
2019-03-31T11:20:27.145Z,7.44
2019-03-31T11:20:27.178Z,6.55
2019-03-31T11:26:21.828Z,6.48
2019-03-31T11:32:16.871Z,6.41
2019-03-31T11:38:11.828Z,5.58
2019-03-31T11:44:06.857Z,5.39
2019-03-31T11:50:01.818Z,5.4
2019-03-31T11:55:56.884Z,5.86
2019-03-31T12:01:51.855Z,4.6
2019-03-31T12:13:41.873Z,4.65
2019-03-31T12:13:41.902Z,4.16
2019-03-31T12:19:36.878Z,3.83
2019-03-31T12:25:31.884Z,3.76
2019-03-31T12:31:27.165Z,3.16
2019-03-31T12:37:21.847Z,3.47
2019-03-31T12:43:16.920Z,2.97
2019-03-31T12:49:11.873Z,3.49
2019-03-31T12:55:06.889Z,3.42
2019-03-31T13:01:01.891Z,3.02
2019-03-31T13:06:56.906Z,2.66
2019-03-31T13:12:51.927Z,2.89
2019-03-31T13:18:46.947Z,3.24
2019-03-31T13:24:41.908Z,2.74
2019-03-31T13:30:36.910Z,2.57
2019-03-31T13:36:31.890Z,2.75
2019-03-31T13:42:26.907Z,2.94
2019-03-31T13:48:22.082Z,3.01
2019-03-31T13:54:16.919Z,3.14
2019-03-31T14:00:11.963Z,3.13
2019-03-31T14:06:06.928Z,2.5
2019-03-31T14:12:01.934Z,2.7
2019-03-31T14:17:56.932Z,2.66
2019-03-31T14:23:51.964Z,2.65
2019-03-31T14:29:46.962Z,2.42
2019-03-31T14:35:41.944Z,3.18
2019-03-31T14:41:36.948Z,2.65
2019-03-31T14:47:31.979Z,3.18
2019-03-31T15:02:07.416Z,3.1
2019-03-31T15:08:02.381Z,3.17
2019-03-31T15:13:57.334Z,2.49
2019-03-31T15:19:52.331Z,2.54
2019-03-31T15:25:47.349Z,2.65
2019-03-31T15:31:42.359Z,2.77
2019-03-31T15:37:37.363Z,2.42
2019-03-31T15:43:32.457Z,2.83
2019-03-31T15:49:27.647Z,2.64
2019-03-31T16:01:17.384Z,2.54
2019-03-31T16:01:17.402Z,2.62
2019-03-31T16:07:12.384Z,2.72
2019-03-31T16:13:07.398Z,2.83
2019-03-31T16:19:02.384Z,3.06
2019-03-31T16:24:57.377Z,2.5
2019-03-31T16:30:52.398Z,2.76
2019-03-31T16:36:47.389Z,2.81
2019-03-31T16:42:42.413Z,2.98
2019-03-31T16:54:32.413Z,2.65
2019-03-31T16:54:32.455Z,2.41
2019-03-31T17:00:27.700Z,2.46
2019-03-31T17:06:22.476Z,2.6
2019-03-31T17:12:17.405Z,2.61
2019-03-31T17:18:12.446Z,3.58
2019-03-31T17:24:07.459Z,3.67
2019-03-31T17:30:02.402Z,4.76
2019-03-31T17:35:57.430Z,5.6
2019-03-31T17:41:52.488Z,5.12
2019-03-31T17:47:47.448Z,4.91
2019-03-31T17:53:42.448Z,5.16
2019-03-31T17:59:37.504Z,7.64
2019-03-31T18:05:32.806Z,6.95
2019-03-31T18:11:27.482Z,6.39
2019-03-31T18:17:22.451Z,6.21
2019-03-31T18:23:17.484Z,6.03
2019-03-31T18:29:12.453Z,6.68
2019-03-31T18:35:07.473Z,6.44
2019-03-31T18:41:03.750Z,8.06
2019-03-31T18:46:57.522Z,9
2019-03-31T18:52:52.451Z,9.78
2019-03-31T18:58:47.467Z,9.1
2019-03-31T19:04:42.575Z,8.63
2019-03-31T19:10:48.633Z,7.66
2019-03-31T19:16:32.491Z,7.31
2019-03-31T19:22:27.544Z,7.78
2019-03-31T19:28:22.512Z,7.63
2019-03-31T19:34:17.516Z,7.66
2019-03-31T19:40:12.592Z,7.86
2019-03-31T19:46:07.507Z,6.64
2019-03-31T19:52:06.105Z,7.84
2019-03-31T19:58:01.678Z,7.17
2019-03-31T20:03:52.518Z,7.37
2019-03-31T20:09:47.517Z,7.36
2019-03-31T20:15:42.541Z,7.55
2019-03-31T20:21:37.597Z,7.78
2019-03-31T20:27:32.836Z,7.07
2019-03-31T20:33:27.618Z,6.57
2019-03-31T20:39:22.599Z,7.62
2019-03-31T20:45:17.623Z,6.81
2019-03-31T20:51:12.546Z,6.4
2019-03-31T20:57:07.542Z,6.96
2019-03-31T21:03:02.588Z,6.51
2019-03-31T21:08:57.591Z,7.33
2019-03-31T21:14:52.574Z,6.92
2019-03-31T21:20:47.565Z,8
2019-03-31T21:26:42.562Z,7.64
2019-03-31T21:32:37.566Z,13.04
2019-03-31T21:38:32.619Z,8.81
2019-03-31T21:44:27.595Z,11.22
2019-03-31T21:50:22.601Z,16.59
2019-03-31T21:56:17.603Z,14.9
2019-03-31T22:02:12.675Z,17.26
2019-03-31T22:08:07.633Z,21
2019-03-31T22:19:57.607Z,18.57
2019-03-31T22:19:57.642Z,22.14
2019-03-31T22:25:52.725Z,23.15
2019-03-31T22:31:47.634Z,22.92
2019-03-31T22:37:42.600Z,21.95
2019-03-31T22:43:37.640Z,17.31
2019-03-31T22:49:32.609Z,15.8
2019-03-31T22:55:27.649Z,16.18
2019-03-31T23:01:22.622Z,13.98
2019-03-31T23:13:12.652Z,11.34
2019-03-31T23:13:12.670Z,9.97
2019-03-31T23:19:07.662Z,7.64
2019-03-31T23:25:02.666Z,7.04
2019-03-31T23:30:57.674Z,6.4
2019-03-31T23:36:52.649Z,6.37
2019-03-31T23:42:47.651Z,5.52
2019-03-31T23:48:42.656Z,5.84
2019-03-31T23:54:37.954Z,5.41
